Time;durP1;ratioP1;P1;durP2;ratioP2;P2;SDS_P1;SDS_P2;PMS_P1;PMS_P2;Temp;Humidity;BMP_temperature;BMP_pressure;BME280_temperature;BME280_humidity;BME280_pressure;Samples;Min_cycle;Max_cycle;Signal;HPM_P1;HPM_P2
2022/07/07 00:02:03;;;;;;;8.18;2.00;;;22.30;99.90;;;;;;4856481;29;20046;-74
2022/07/07 00:04:29;;;;;;;7.35;1.42;;;22.30;99.90;;;;;;4862658;29;20049;-77
2022/07/07 00:06:55;;;;;;;5.40;1.80;;;22.20;99.90;;;;;;4840285;29;20094;-74
2022/07/07 00:09:21;;;;;;;6.60;1.73;;;22.20;99.90;;;;;;4856711;29;20041;-74
2022/07/07 00:11:48;;;;;;;6.78;1.77;;;22.10;99.90;;;;;;4858903;29;20101;-75
2022/07/07 00:14:14;;;;;;;7.05;2.22;;;22.10;99.90;;;;;;4857812;29;20168;-75
2022/07/07 00:16:42;;;;;;;7.28;1.63;;;22.10;99.90;;;;;;4859371;29;20022;-74
2022/07/07 00:19:10;;;;;;;5.50;1.98;;;22.20;99.90;;;;;;4858071;29;20044;-74
2022/07/07 00:21:36;;;;;;;5.90;1.40;;;22.10;99.90;;;;;;4851709;29;20044;-74
2022/07/07 00:24:02;;;;;;;5.88;1.75;;;22.20;99.90;;;;;;4834753;29;20105;-74
2022/07/07 00:26:30;;;;;;;4.30;1.58;;;22.20;99.90;;;;;;4850320;29;20044;-76
2022/07/07 00:28:56;;;;;;;10.73;1.40;;;22.10;99.90;;;;;;4848649;29;20093;-75
2022/07/07 00:31:23;;;;;;;5.55;1.55;;;22.10;99.90;;;;;;4857975;29;20040;-77
2022/07/07 00:33:49;;;;;;;5.95;1.58;;;22.20;99.90;;;;;;4851840;29;20137;-75
2022/07/07 00:36:16;;;;;;;5.10;1.45;;;22.20;99.90;;;;;;4847882;29;20034;-73
2022/07/07 00:38:42;;;;;;;3.58;1.10;;;22.10;99.90;;;;;;4854376;29;20052;-77
2022/07/07 00:41:08;;;;;;;5.15;1.40;;;22.20;99.90;;;;;;4853157;29;20045;-74
2022/07/07 00:43:39;;;;;;;6.68;1.50;;;22.20;99.90;;;;;;4858635;29;20042;-73
2022/07/07 00:46:09;;;;;;;2.90;1.40;;;22.30;99.90;;;;;;4855011;29;20033;-74
2022/07/07 00:48:37;;;;;;;3.45;1.55;;;22.20;99.90;;;;;;4861828;29;20097;-80
2022/07/07 00:51:05;;;;;;;5.38;1.45;;;22.20;99.90;;;;;;4852241;29;20037;-79
2022/07/07 00:53:32;;;;;;;6.13;1.20;;;22.30;99.90;;;;;;4853887;29;20142;-75
2022/07/07 00:55:58;;;;;;;6.50;1.60;;;22.40;99.90;;;;;;4854287;29;20706;-74
2022/07/07 00:58:24;;;;;;;4.68;1.35;;;22.50;99.90;;;;;;4850782;29;20071;-75
2022/07/07 01:00:53;;;;;;;4.18;1.45;;;22.50;99.90;;;;;;4842065;29;20473;-74
2022/07/07 01:03:23;;;;;;;4.35;1.40;;;22.60;99.90;;;;;;4855786;29;20034;-74
2022/07/07 01:05:49;;;;;;;3.60;1.17;;;22.50;99.90;;;;;;4830386;29;20046;-80
2022/07/07 01:08:16;;;;;;;5.93;1.50;;;22.50;99.90;;;;;;4837373;29;20073;-79
2022/07/07 01:10:44;;;;;;;4.85;1.30;;;22.50;99.90;;;;;;4852115;29;20042;-74
2022/07/07 01:13:10;;;;;;;4.43;1.50;;;22.50;99.90;;;;;;4862045;29;20041;-74
2022/07/07 01:15:36;;;;;;;4.40;1.60;;;22.50;99.90;;;;;;4858277;29;20029;-74
2022/07/07 01:18:09;;;;;;;3.65;1.30;;;22.50;99.90;;;;;;4855996;29;20041;-80
2022/07/07 01:20:36;;;;;;;4.68;1.30;;;22.50;99.90;;;;;;4856222;29;20117;-75
2022/07/07 01:23:02;;;;;;;5.80;1.40;;;22.70;99.90;;;;;;4838418;29;20037;-74
2022/07/07 01:25:28;;;;;;;5.70;1.80;;;22.70;99.90;;;;;;4852076;29;20041;-74
2022/07/07 01:27:55;;;;;;;4.15;1.15;;;22.60;99.90;;;;;;4858888;29;20168;-80
2022/07/07 01:30:21;;;;;;;2.95;1.30;;;22.70;99.90;;;;;;4853385;29;20037;-74
2022/07/07 01:32:48;;;;;;;10.02;1.80;;;22.60;99.90;;;;;;4850674;29;20044;-75
2022/07/07 01:35:14;;;;;;;7.60;1.35;;;22.60;99.90;;;;;;4853972;29;20042;-74
2022/07/07 01:37:40;;;;;;;6.82;1.50;;;22.70;99.90;;;;;;4850392;29;20095;-75
2022/07/07 01:40:07;;;;;;;4.03;1.23;;;22.70;99.90;;;;;;4845590;29;20037;-81
2022/07/07 01:42:32;;;;;;;7.55;1.67;;;22.80;99.90;;;;;;4862786;29;20034;-75
2022/07/07 01:44:59;;;;;;;3.80;1.38;;;22.80;99.90;;;;;;4853006;29;20076;-73
2022/07/07 01:47:25;;;;;;;6.22;1.50;;;22.80;99.90;;;;;;4852316;29;20061;-76
2022/07/07 01:49:52;;;;;;;4.45;1.05;;;22.70;99.90;;;;;;4849186;29;20051;-80
2022/07/07 01:52:18;;;;;;;6.70;1.92;;;22.70;99.90;;;;;;4849220;29;20037;-74
2022/07/07 01:54:44;;;;;;;5.25;1.20;;;22.70;99.90;;;;;;4851894;29;20536;-74
2022/07/07 01:57:10;;;;;;;3.78;1.20;;;22.60;99.90;;;;;;4849580;29;20471;-79
2022/07/07 01:59:38;;;;;;;6.20;1.60;;;22.50;99.90;;;;;;4853340;29;20098;-74
2022/07/07 02:02:04;;;;;;;5.10;1.58;;;22.40;99.90;;;;;;4850876;29;20038;-77
2022/07/07 02:04:31;;;;;;;3.08;1.10;;;22.40;99.90;;;;;;4854527;29;20050;-74
2022/07/07 02:06:58;;;;;;;6.03;1.48;;;22.40;99.90;;;;;;4849871;29;20530;-73
2022/07/07 02:09:24;;;;;;;6.38;1.80;;;22.30;99.90;;;;;;4836679;29;20044;-74
2022/07/07 02:11:50;;;;;;;8.45;1.48;;;22.40;99.90;;;;;;4840753;29;20552;-74
2022/07/07 02:14:18;;;;;;;4.68;1.40;;;22.30;99.90;;;;;;4855420;29;20030;-77
2022/07/07 02:16:44;;;;;;;6.65;1.48;;;22.30;99.90;;;;;;4851584;29;20030;-74
2022/07/07 02:19:10;;;;;;;4.72;1.25;;;22.40;99.90;;;;;;4850358;29;20040;-76
2022/07/07 02:21:36;;;;;;;5.65;1.42;;;22.50;99.90;;;;;;4851907;29;20030;-77
2022/07/07 02:24:03;;;;;;;6.22;1.40;;;22.50;99.90;;;;;;4855358;29;20501;-74
2022/07/07 02:26:31;;;;;;;3.40;1.23;;;22.60;99.90;;;;;;4851723;29;20041;-75
2022/07/07 02:28:57;;;;;;;4.10;1.40;;;22.70;99.90;;;;;;4863596;29;20386;-73
2022/07/07 02:31:23;;;;;;;6.10;1.55;;;22.70;99.90;;;;;;4850612;29;20034;-79
2022/07/07 02:33:50;;;;;;;3.55;1.10;;;22.70;99.90;;;;;;4854877;29;20038;-74
2022/07/07 02:36:16;;;;;;;6.57;1.38;;;22.60;99.90;;;;;;4851655;29;20093;-78
2022/07/07 02:38:42;;;;;;;5.97;1.50;;;22.60;99.90;;;;;;4861069;29;20076;-77
2022/07/07 02:41:08;;;;;;;4.72;1.25;;;22.60;99.90;;;;;;4859836;29;20034;-76
2022/07/07 02:43:34;;;;;;;5.20;1.52;;;22.70;99.90;;;;;;4858417;29;20040;-76
2022/07/07 02:46:00;;;;;;;5.00;1.30;;;22.70;99.90;;;;;;4850888;29;20460;-77
2022/07/07 02:48:26;;;;;;;5.63;1.25;;;22.70;99.90;;;;;;4850777;29;20034;-77
2022/07/07 02:50:54;;;;;;;5.38;1.55;;;22.80;99.90;;;;;;4858385;29;20034;-75
2022/07/07 02:53:21;;;;;;;4.80;1.20;;;22.70;99.90;;;;;;4854938;29;20042;-77
2022/07/07 02:55:47;;;;;;;7.80;1.60;;;22.70;99.90;;;;;;4828817;29;20033;-75
2022/07/07 02:58:22;;;;;;;5.60;1.30;;;22.80;99.90;;;;;;4859965;29;20117;-79
2022/07/07 03:00:54;;;;;;;4.95;1.40;;;22.70;99.90;;;;;;4856841;29;20033;-74
2022/07/07 03:03:20;;;;;;;6.80;1.50;;;22.70;99.90;;;;;;4861966;29;20036;-79
2022/07/07 03:05:47;;;;;;;5.40;1.42;;;22.60;99.90;;;;;;4855771;29;20296;-75
2022/07/07 03:08:14;;;;;;;5.20;1.65;;;22.70;99.90;;;;;;4861064;29;20058;-79
2022/07/07 03:10:42;;;;;;;3.35;1.08;;;22.70;99.90;;;;;;4854857;29;20038;-78
2022/07/07 03:13:07;;;;;;;6.45;1.50;;;22.60;99.90;;;;;;4874189;29;20044;-79
2022/07/07 03:15:33;;;;;;;5.47;1.40;;;22.60;99.90;;;;;;4860495;29;20037;-75
2022/07/07 03:17:59;;;;;;;6.35;1.50;;;22.50;99.90;;;;;;4860380;29;20090;-75
2022/07/07 03:20:25;;;;;;;4.88;1.85;;;22.30;99.90;;;;;;4845246;29;20037;-81
2022/07/07 03:22:51;;;;;;;5.38;1.50;;;22.10;99.90;;;;;;4845745;29;20087;-78
2022/07/07 03:25:18;;;;;;;5.03;1.70;;;22.00;99.90;;;;;;4855278;29;20069;-74
2022/07/07 03:27:44;;;;;;;5.82;1.65;;;22.00;99.90;;;;;;4859885;29;20120;-77
2022/07/07 03:30:10;;;;;;;5.30;1.83;;;22.00;99.90;;;;;;4860284;29;20061;-75
2022/07/07 03:32:36;;;;;;;5.72;1.70;;;22.00;99.90;;;;;;4860706;29;20242;-73
2022/07/07 03:35:09;;;;;;;3.55;1.50;;;21.90;99.90;;;;;;4842025;29;20049;-81
2022/07/07 03:37:36;;;;;;;3.95;1.70;;;21.90;99.90;;;;;;4860245;29;20037;-78
2022/07/07 03:40:04;;;;;;;5.78;1.85;;;21.80;99.90;;;;;;4863232;29;20042;-74
2022/07/07 03:42:29;;;;;;;4.65;1.83;;;21.80;99.90;;;;;;4834373;29;20048;-80
2022/07/07 03:44:57;;;;;;;6.72;1.80;;;21.70;99.90;;;;;;4859406;29;20097;-75
2022/07/07 03:47:22;;;;;;;5.43;1.80;;;21.60;99.90;;;;;;4859193;29;20613;-76
2022/07/07 03:49:48;;;;;;;6.93;1.83;;;21.70;99.90;;;;;;4846459;29;20038;-79
2022/07/07 03:52:14;;;;;;;4.72;2.10;;;21.70;99.90;;;;;;4861469;29;20042;-74
2022/07/07 03:54:40;;;;;;;3.75;1.70;;;21.70;99.90;;;;;;4858382;29;20769;-74
2022/07/07 03:57:06;;;;;;;4.68;1.80;;;21.60;99.90;;;;;;4857365;29;20033;-76
2022/07/07 03:59:31;;;;;;;6.68;1.83;;;21.70;99.90;;;;;;4853797;29;20042;-78
2022/07/07 04:01:57;;;;;;;5.50;1.65;;;21.60;99.90;;;;;;4856695;29;20037;-74
2022/07/07 04:04:23;;;;;;;4.97;2.17;;;21.70;99.90;;;;;;4856551;29;20050;-74
2022/07/07 04:06:48;;;;;;;4.90;2.03;;;21.70;99.90;;;;;;4856881;29;20120;-77
2022/07/07 04:09:14;;;;;;;4.47;1.70;;;21.60;99.90;;;;;;4854601;29;20177;-81
2022/07/07 04:11:40;;;;;;;6.05;2.08;;;21.60;99.90;;;;;;4857377;29;20038;-75
2022/07/07 04:14:06;;;;;;;5.25;1.90;;;21.50;99.90;;;;;;4839476;29;20374;-75
2022/07/07 04:16:33;;;;;;;5.63;2.10;;;21.60;99.90;;;;;;4858557;29;20044;-80
2022/07/07 04:18:59;;;;;;;7.43;1.92;;;21.70;99.90;;;;;;4859168;29;20037;-74
2022/07/07 04:21:24;;;;;;;7.55;2.35;;;21.70;99.90;;;;;;4859459;29;20101;-75
2022/07/07 04:23:50;;;;;;;6.95;2.03;;;21.60;99.90;;;;;;4856194;29;20033;-79
2022/07/07 04:26:16;;;;;;;9.75;2.13;;;21.60;99.90;;;;;;4854688;29;20052;-76
2022/07/07 04:28:42;;;;;;;5.25;2.03;;;21.50;99.90;;;;;;4857977;29;20046;-75
2022/07/07 04:31:08;;;;;;;8.43;2.25;;;21.60;99.90;;;;;;4857343;29;20061;-75
2022/07/07 04:33:35;;;;;;;7.55;2.17;;;21.50;99.90;;;;;;4857088;29;20116;-80
2022/07/07 04:36:01;;;;;;;5.78;2.15;;;21.50;99.90;;;;;;4863869;29;20093;-74
2022/07/07 04:38:27;;;;;;;4.80;2.00;;;21.50;99.90;;;;;;4856275;29;20037;-76
2022/07/07 04:40:52;;;;;;;3.80;1.75;;;21.50;99.90;;;;;;4860439;29;20054;-78
2022/07/07 04:43:20;;;;;;;6.38;1.85;;;21.70;99.90;;;;;;4857911;29;20075;-75
2022/07/07 04:45:47;;;;;;;7.53;2.17;;;21.70;99.90;;;;;;4855100;29;20132;-80
2022/07/07 04:48:15;;;;;;;4.40;1.60;;;21.90;99.90;;;;;;4833965;29;20113;-75
2022/07/07 04:50:41;;;;;;;7.40;1.98;;;22.00;99.90;;;;;;4853480;29;20097;-75
2022/07/07 04:53:07;;;;;;;4.80;1.42;;;22.10;99.90;;;;;;4852986;29;20033;-75
2022/07/07 04:55:34;;;;;;;5.53;1.80;;;22.20;99.90;;;;;;4855608;29;20474;-75
2022/07/07 04:58:00;;;;;;;5.57;1.80;;;22.30;99.90;;;;;;4855356;29;20069;-75
2022/07/07 05:00:26;;;;;;;6.78;1.80;;;22.40;99.90;;;;;;4850420;29;20034;-74
2022/07/07 05:02:51;;;;;;;6.07;1.80;;;22.50;99.90;;;;;;4860900;29;20038;-78
2022/07/07 05:05:17;;;;;;;5.70;1.67;;;22.50;99.90;;;;;;4849288;29;20072;-76
2022/07/07 05:07:43;;;;;;;5.45;1.73;;;22.60;99.90;;;;;;4866318;29;20061;-76
2022/07/07 05:10:10;;;;;;;4.43;1.73;;;22.60;99.90;;;;;;4858043;29;20504;-74
2022/07/07 05:12:36;;;;;;;9.30;2.72;;;22.70;99.90;;;;;;4861117;29;20053;-79
2022/07/07 05:15:02;;;;;;;4.45;1.75;;;22.80;99.90;;;;;;4856256;29;20078;-75
2022/07/07 05:17:28;;;;;;;4.47;1.90;;;22.80;99.90;;;;;;4859635;29;20037;-75
2022/07/07 05:19:53;;;;;;;6.72;2.30;;;22.80;99.90;;;;;;4871245;29;20037;-80
2022/07/07 05:22:19;;;;;;;4.90;1.73;;;22.90;99.90;;;;;;4854358;29;20056;-77
2022/07/07 05:24:46;;;;;;;6.13;1.80;;;22.80;99.90;;;;;;4858223;29;20049;-76
2022/07/07 05:27:12;;;;;;;5.68;1.77;;;22.90;99.90;;;;;;4856302;29;20524;-81
2022/07/07 05:29:42;;;;;;;5.68;1.92;;;22.90;99.90;;;;;;4852682;29;20056;-75
2022/07/07 05:32:09;;;;;;;5.88;2.03;;;22.80;99.90;;;;;;4859400;29;20044;-80
2022/07/07 05:34:35;;;;;;;6.35;1.70;;;22.80;99.90;;;;;;4856304;29;20033;-76
2022/07/07 05:37:02;;;;;;;7.13;2.17;;;22.70;99.90;;;;;;4855841;29;20064;-75
2022/07/07 05:39:28;;;;;;;11.38;2.35;;;22.50;99.90;;;;;;4854732;29;20113;-75
2022/07/07 05:41:54;;;;;;;4.50;2.00;;;22.40;99.90;;;;;;4868162;29;20038;-75
2022/07/07 05:44:20;;;;;;;6.20;1.80;;;22.20;99.90;;;;;;4851659;29;20049;-79
2022/07/07 05:46:45;;;;;;;4.75;1.92;;;22.10;99.90;;;;;;4854811;29;20038;-76
2022/07/07 05:49:12;;;;;;;5.65;1.98;;;22.20;99.90;;;;;;4854293;29;20040;-75
2022/07/07 05:51:38;;;;;;;9.10;2.40;;;22.40;99.90;;;;;;4858018;29;20037;-80
2022/07/07 05:54:04;;;;;;;6.55;2.28;;;22.50;99.90;;;;;;4852902;29;20513;-78
2022/07/07 05:56:29;;;;;;;5.32;2.15;;;22.50;99.90;;;;;;4861623;29;20038;-76
2022/07/07 05:58:56;;;;;;;6.90;2.00;;;22.60;99.90;;;;;;4837790;29;20038;-75
2022/07/07 06:01:22;;;;;;;8.38;2.17;;;22.70;99.90;;;;;;4855772;29;20046;-77
2022/07/07 06:03:50;;;;;;;6.40;1.80;;;22.70;99.90;;;;;;4843759;29;20059;-74
2022/07/07 06:06:18;;;;;;;6.70;2.03;;;22.80;99.90;;;;;;4849997;29;20041;-77
2022/07/07 06:08:48;;;;;;;4.60;2.20;;;22.80;99.90;;;;;;4851582;29;20057;-79
2022/07/07 06:11:14;;;;;;;8.13;2.58;;;22.90;99.90;;;;;;4849777;29;20078;-77
2022/07/07 06:13:40;;;;;;;6.28;2.20;;;22.80;99.90;;;;;;4859033;29;20042;-74
2022/07/07 06:16:06;;;;;;;6.03;2.00;;;22.60;99.90;;;;;;4850833;29;20033;-76
2022/07/07 06:18:31;;;;;;;5.90;2.20;;;22.60;99.90;;;;;;4862206;29;20036;-79
2022/07/07 06:20:57;;;;;;;8.07;2.75;;;22.50;99.90;;;;;;4848689;29;20359;-76
2022/07/07 06:23:23;;;;;;;5.78;2.20;;;22.60;99.90;;;;;;4853062;29;20048;-75
2022/07/07 06:25:49;;;;;;;4.05;1.90;;;22.50;99.90;;;;;;4853615;29;20133;-77
2022/07/07 06:28:15;;;;;;;7.40;2.92;;;22.50;99.90;;;;;;4854752;29;20046;-80
2022/07/07 06:30:40;;;;;;;7.07;2.60;;;22.60;99.90;;;;;;4854934;29;20042;-77
2022/07/07 06:33:07;;;;;;;5.60;2.90;;;22.60;99.90;;;;;;4861388;29;20041;-75
2022/07/07 06:35:32;;;;;;;5.15;2.03;;;22.80;99.90;;;;;;4860671;29;20588;-76
2022/07/07 06:37:58;;;;;;;6.82;2.25;;;22.90;99.90;;;;;;4854606;29;20061;-80
2022/07/07 06:40:25;;;;;;;7.95;2.83;;;23.00;99.90;;;;;;4827884;29;20049;-76
2022/07/07 06:42:55;;;;;;;7.65;2.72;;;23.00;99.90;;;;;;4857434;29;20056;-77
2022/07/07 06:45:21;;;;;;;5.55;2.25;;;23.10;99.90;;;;;;4858573;29;20133;-80
2022/07/07 06:47:47;;;;;;;7.22;2.38;;;23.20;99.90;;;;;;4856602;29;20042;-75
2022/07/07 06:50:14;;;;;;;5.05;2.03;;;23.40;99.90;;;;;;4859215;29;20068;-76
2022/07/07 06:52:41;;;;;;;8.10;2.63;;;23.20;99.90;;;;;;4863562;29;20482;-79
2022/07/07 06:55:07;;;;;;;7.82;2.60;;;23.20;99.90;;;;;;4858362;29;20046;-75
2022/07/07 06:57:33;;;;;;;9.52;2.40;;;23.20;99.90;;;;;;4857330;29;20033;-75
2022/07/07 07:00:00;;;;;;;6.85;2.10;;;23.40;99.90;;;;;;4860508;29;20506;-80
2022/07/07 07:02:25;;;;;;;5.63;2.45;;;23.40;99.90;;;;;;4857554;29;20056;-75
2022/07/07 07:04:52;;;;;;;6.22;2.20;;;23.40;99.90;;;;;;4840796;29;20049;-76
2022/07/07 07:07:18;;;;;;;11.43;2.63;;;23.50;99.90;;;;;;4866598;29;20045;-75
2022/07/07 07:09:44;;;;;;;8.52;2.42;;;23.70;99.90;;;;;;4851661;29;20578;-74
2022/07/07 07:12:10;;;;;;;5.55;1.85;;;23.90;99.90;;;;;;4849696;29;20168;-75
2022/07/07 07:14:36;;;;;;;5.68;1.75;;;23.90;99.90;;;;;;4850307;29;20050;-80
2022/07/07 07:17:02;;;;;;;5.97;2.63;;;23.90;99.90;;;;;;4853347;29;20176;-75
2022/07/07 07:19:28;;;;;;;7.18;2.10;;;24.00;99.90;;;;;;4851631;29;20953;-76
2022/07/07 07:21:54;;;;;;;10.13;2.20;;;24.00;99.90;;;;;;4853631;29;20045;-81
2022/07/07 07:24:20;;;;;;;8.68;1.85;;;24.30;99.90;;;;;;4853087;29;20648;-77
2022/07/07 07:26:46;;;;;;;3.97;1.90;;;24.40;99.90;;;;;;4856902;29;20046;-75
2022/07/07 07:29:11;;;;;;;8.07;2.13;;;24.70;99.90;;;;;;4845386;29;20049;-76
2022/07/07 07:31:37;;;;;;;4.63;1.70;;;24.90;99.90;;;;;;4864842;29;21612;-77
2022/07/07 07:34:03;;;;;;;5.90;1.85;;;25.20;99.90;;;;;;4841016;29;20129;-80
2022/07/07 07:36:37;;;;;;;4.22;1.60;;;25.40;99.90;;;;;;4853327;29;20069;-76
2022/07/07 07:39:03;;;;;;;10.80;2.00;;;25.50;99.90;;;;;;4853750;29;20060;-75
2022/07/07 07:41:29;;;;;;;7.72;1.88;;;25.50;99.90;;;;;;4852404;29;20046;-74
2022/07/07 07:43:56;;;;;;;5.60;1.65;;;25.60;99.90;;;;;;4851778;29;20104;-78
2022/07/07 07:46:22;;;;;;;6.50;1.60;;;25.60;99.90;;;;;;4850080;29;20052;-75
2022/07/07 07:48:48;;;;;;;6.60;1.75;;;25.70;99.90;;;;;;4852627;29;20417;-75
2022/07/07 07:51:15;;;;;;;6.50;1.80;;;25.70;99.90;;;;;;4846693;29;20049;-74
2022/07/07 07:53:41;;;;;;;7.43;1.63;;;25.70;99.90;;;;;;4862214;29;20041;-75
2022/07/07 07:56:07;;;;;;;7.05;2.20;;;25.90;99.90;;;;;;4836003;29;20038;-75
2022/07/07 07:58:33;;;;;;;6.90;1.88;;;25.90;99.90;;;;;;4863870;29;20090;-77
2022/07/07 08:00:59;;;;;;;8.57;1.92;;;26.00;99.90;;;;;;4856959;29;20136;-75
2022/07/07 08:03:25;;;;;;;4.20;1.90;;;26.00;99.90;;;;;;4851761;29;20098;-75
2022/07/07 08:05:51;;;;;;;5.20;1.63;;;25.90;99.90;;;;;;4849805;29;20045;-75
2022/07/07 08:08:17;;;;;;;9.05;2.35;;;25.90;99.90;;;;;;4833616;29;20046;-78
2022/07/07 08:10:43;;;;;;;6.93;2.50;;;25.70;99.90;;;;;;4849706;29;20124;-78
2022/07/07 08:13:08;;;;;;;7.45;2.28;;;25.60;99.90;;;;;;4852887;29;20556;-77
2022/07/07 08:15:34;;;;;;;5.65;2.00;;;25.70;99.90;;;;;;4854763;29;20049;-75
2022/07/07 08:18:00;;;;;;;10.48;2.20;;;25.60;99.90;;;;;;4855055;29;20053;-78
2022/07/07 08:20:26;;;;;;;8.07;2.13;;;25.80;99.90;;;;;;4854026;29;20056;-80
2022/07/07 08:22:53;;;;;;;5.47;2.17;;;25.90;99.90;;;;;;4854412;29;20045;-77
2022/07/07 08:25:21;;;;;;;4.05;1.88;;;25.90;99.90;;;;;;4851755;29;20101;-75
2022/07/07 08:27:47;;;;;;;5.40;1.95;;;26.00;99.90;;;;;;4845964;29;20102;-75
2022/07/07 08:30:17;;;;;;;5.47;2.17;;;26.10;99.90;;;;;;4848514;29;20037;-74
2022/07/07 08:32:45;;;;;;;6.50;2.10;;;26.20;99.90;;;;;;4851062;29;20148;-75
2022/07/07 08:35:15;;;;;;;6.85;2.05;;;26.20;99.90;;;;;;4846942;29;20045;-74
2022/07/07 08:37:41;;;;;;;6.28;2.22;;;26.30;99.90;;;;;;4841875;29;20105;-75
2022/07/07 08:40:07;;;;;;;5.68;2.10;;;26.40;99.90;;;;;;4847577;29;20042;-76
2022/07/07 08:42:36;;;;;;;3.67;2.20;;;26.60;99.90;;;;;;4849142;29;20141;-78
2022/07/07 08:45:03;;;;;;;7.43;2.28;;;27.50;99.90;;;;;;4857543;29;20064;-79
2022/07/07 08:47:30;;;;;;;6.57;2.05;;;28.40;99.90;;;;;;4849393;29;20049;-75
2022/07/07 08:49:56;;;;;;;4.72;2.05;;;29.20;99.90;;;;;;4846464;29;20053;-80
2022/07/07 08:52:22;;;;;;;8.63;1.88;;;29.90;99.90;;;;;;4850725;29;20056;-75
2022/07/07 08:54:49;;;;;;;6.15;2.03;;;30.50;97.70;;;;;;4847355;29;20045;-76
2022/07/07 08:57:17;;;;;;;6.72;2.22;;;30.80;96.50;;;;;;4848065;29;20053;-80
2022/07/07 08:59:43;;;;;;;4.63;1.75;;;31.20;96.50;;;;;;4854160;29;20041;-77
2022/07/07 09:02:09;;;;;;;4.47;1.90;;;30.30;96.00;;;;;;4852279;29;20093;-78
2022/07/07 09:04:35;;;;;;;4.22;1.65;;;29.60;97.20;;;;;;4851291;29;20141;-81
2022/07/07 09:07:04;;;;;;;5.47;1.70;;;29.50;97.00;;;;;;4847692;29;20053;-75
2022/07/07 09:09:36;;;;;;;5.85;1.80;;;30.20;96.50;;;;;;4855399;29;20041;-77
2022/07/07 09:12:03;;;;;;;8.90;2.10;;;31.10;95.80;;;;;;4853420;29;20092;-77
2022/07/07 09:14:44;;;;;;;5.75;1.52;;;31.20;95.20;;;;;;4861290;29;20061;-76
2022/07/07 09:17:16;;;;;;;4.68;1.42;;;31.50;94.50;;;;;;4859791;29;20098;-75
2022/07/07 09:19:43;;;;;;;7.30;1.55;;;31.00;94.20;;;;;;4854437;29;20038;-74
2022/07/07 09:22:11;;;;;;;7.65;2.20;;;31.60;93.60;;;;;;4832397;29;20041;-74
2022/07/07 09:24:56;;;;;;;4.18;1.60;;;32.70;93.00;;;;;;4839953;29;20169;-79
2022/07/07 09:27:22;;;;;;;5.38;2.03;;;32.50;93.10;;;;;;4849471;29;20052;-74
2022/07/07 09:29:50;;;;;;;4.50;1.73;;;32.20;93.10;;;;;;4854845;29;20354;-75
2022/07/07 09:32:18;;;;;;;5.53;2.00;;;32.50;92.60;;;;;;4854725;29;20045;-74
2022/07/07 09:34:44;;;;;;;4.25;1.83;;;33.00;92.20;;;;;;4855112;29;20052;-78
2022/07/07 09:39:56;;;;;;;7.47;1.83;;;33.80;91.50;;;;;;4857283;29;20402;-79
2022/07/07 09:42:30;;;;;;;6.47;2.03;;;33.40;91.80;;;;;;4852918;29;21195;-75
2022/07/07 09:45:00;;;;;;;5.85;1.58;;;33.50;92.20;;;;;;4862191;29;20048;-74
2022/07/07 09:47:27;;;;;;;6.82;1.73;;;32.30;92.00;;;;;;4853522;29;20048;-74
2022/07/07 09:50:00;;;;;;;3.85;1.65;;;31.60;93.40;;;;;;4855820;29;20042;-75
2022/07/07 09:52:27;;;;;;;5.82;1.98;;;32.00;93.30;;;;;;4856638;29;20033;-78
2022/07/07 09:54:54;;;;;;;6.93;2.20;;;33.00;92.80;;;;;;4850696;29;20048;-75
2022/07/07 09:57:20;;;;;;;7.43;2.17;;;33.50;92.60;;;;;;4850533;29;20124;-76
2022/07/07 09:59:46;;;;;;;4.13;1.98;;;32.70;92.60;;;;;;4853833;29;20041;-76
2022/07/07 10:02:22;;;;;;;5.80;1.90;;;33.10;92.90;;;;;;4851927;29;20038;-77
2022/07/07 10:04:51;;;;;;;5.38;1.73;;;32.80;92.30;;;;;;4850586;29;20063;-80
2022/07/07 10:07:22;;;;;;;4.13;1.50;;;32.30;91.10;;;;;;4838324;29;20117;-75
2022/07/07 10:09:51;;;;;;;5.13;1.70;;;30.90;92.40;;;;;;4851159;29;20037;-75
2022/07/07 10:12:20;;;;;;;5.03;1.40;;;31.90;92.10;;;;;;4839022;29;20148;-74
2022/07/07 10:14:49;;;;;;;7.78;1.80;;;31.50;92.60;;;;;;4839509;29;20035;-76
2022/07/07 10:17:16;;;;;;;7.07;1.90;;;32.30;92.40;;;;;;4853706;29;20045;-75
2022/07/07 10:19:44;;;;;;;8.43;1.98;;;32.80;91.80;;;;;;4851552;29;20033;-77
2022/07/07 10:22:13;;;;;;;10.35;3.10;;;32.20;92.10;;;;;;4853747;29;20033;-75
2022/07/07 10:24:40;;;;;;;5.35;2.00;;;30.80;93.40;;;;;;4867209;29;20046;-76
2022/07/07 10:27:07;;;;;;;9.48;2.10;;;31.40;92.70;;;;;;4845251;29;20382;-79
2022/07/07 10:29:51;;;;;;;6.43;2.03;;;31.70;92.70;;;;;;4859224;29;20032;-76
2022/07/07 10:32:38;;;;;;;5.63;1.80;;;31.70;92.50;;;;;;4835842;29;20038;-74
2022/07/07 10:35:14;;;;;;;4.97;1.70;;;31.60;92.70;;;;;;4853212;29;20119;-76
2022/07/07 10:37:48;;;;;;;4.55;2.10;;;31.10;93.30;;;;;;4856407;29;20479;-75
2022/07/07 10:40:24;;;;;;;6.05;2.40;;;31.90;93.40;;;;;;4847267;29;20046;-75
2022/07/07 10:42:50;;;;;;;7.05;2.45;;;32.00;92.70;;;;;;4851974;29;20042;-77
2022/07/07 10:45:17;;;;;;;7.40;2.25;;;32.00;93.30;;;;;;4849598;29;20118;-75
2022/07/07 10:47:43;;;;;;;5.25;2.40;;;32.90;92.70;;;;;;4853446;29;20061;-75
2022/07/07 10:50:33;;;;;;;7.45;2.20;;;31.80;92.80;;;;;;4836345;29;20590;-77
2022/07/07 10:52:59;;;;;;;6.13;1.98;;;32.10;93.20;;;;;;4852020;29;20402;-74
2022/07/07 10:55:51;;;;;;;6.25;2.47;;;32.70;92.80;;;;;;4844174;29;20123;-79
2022/07/07 10:59:02;;;;;;;6.80;2.08;;;31.70;93.00;;;;;;4847995;29;20040;-77
2022/07/07 11:01:31;;;;;;;6.05;2.08;;;31.70;94.00;;;;;;4853219;29;20497;-74
2022/07/07 11:04:00;;;;;;;7.90;2.53;;;32.20;94.10;;;;;;4842144;29;20459;-75
2022/07/07 11:06:28;;;;;;;9.15;2.30;;;32.10;94.00;;;;;;4833309;29;20038;-76
2022/07/07 11:08:56;;;;;;;6.20;2.10;;;32.00;94.00;;;;;;4854235;29;20033;-77
2022/07/07 11:11:23;;;;;;;9.82;2.50;;;30.20;94.50;;;;;;4841312;29;21395;-77
2022/07/07 11:14:05;;;;;;;10.77;2.08;;;30.50;94.50;;;;;;4864659;29;20067;-75
2022/07/07 11:16:32;;;;;;;6.32;1.77;;;30.50;94.50;;;;;;4858888;29;20045;-76
2022/07/07 11:19:02;;;;;;;7.65;2.00;;;30.70;94.30;;;;;;4851670;29;20054;-76
2022/07/07 11:21:41;;;;;;;8.57;2.30;;;31.40;93.90;;;;;;4855249;29;20520;-76
2022/07/07 11:24:19;;;;;;;12.07;2.15;;;31.60;93.70;;;;;;4853334;29;20030;-74
2022/07/07 11:26:54;;;;;;;9.45;2.30;;;31.40;93.70;;;;;;4866459;29;20033;-75
2022/07/07 11:29:20;;;;;;;9.52;2.22;;;31.40;93.70;;;;;;4854957;29;20043;-77
2022/07/07 11:31:46;;;;;;;10.27;2.17;;;30.70;94.10;;;;;;4851502;29;20454;-76
2022/07/07 11:34:13;;;;;;;9.77;2.30;;;30.50;94.50;;;;;;4852566;29;20046;-76
2022/07/07 11:36:39;;;;;;;4.90;2.25;;;31.00;94.30;;;;;;4841118;29;20033;-81
2022/07/07 11:39:07;;;;;;;10.07;2.35;;;30.20;94.90;;;;;;4870108;29;20050;-76
2022/07/07 11:41:42;;;;;;;10.52;2.67;;;29.50;95.90;;;;;;4865294;29;20056;-77
2022/07/07 11:44:21;;;;;;;6.78;2.42;;;30.10;95.80;;;;;;4861172;29;20041;-76
2022/07/07 11:46:53;;;;;;;7.13;2.40;;;30.60;95.50;;;;;;4856368;29;20366;-79
2022/07/07 11:49:22;;;;;;;7.25;2.22;;;30.80;95.40;;;;;;4859655;29;20057;-76
2022/07/07 11:51:48;;;;;;;6.07;2.50;;;31.20;95.10;;;;;;4875437;29;20046;-76
2022/07/07 11:54:14;;;;;;;8.80;2.42;;;31.50;95.10;;;;;;4847538;29;20047;-76
2022/07/07 11:56:40;;;;;;;5.57;1.98;;;31.10;95.40;;;;;;4869645;29;20096;-78
2022/07/07 11:59:09;;;;;;;6.55;2.05;;;31.40;95.40;;;;;;4865910;29;20030;-77
2022/07/07 12:01:37;;;;;;;6.75;2.10;;;30.70;95.80;;;;;;4867746;29;20046;-78
2022/07/07 12:04:15;;;;;;;5.88;1.60;;;31.60;95.40;;;;;;4864433;29;20026;-75
2022/07/07 12:06:42;;;;;;;8.30;2.20;;;31.50;95.20;;;;;;4849744;29;20090;-75
2022/07/07 12:09:08;;;;;;;5.63;2.00;;;31.90;94.90;;;;;;4843666;29;20033;-78
2022/07/07 12:11:41;;;;;;;8.10;2.03;;;31.90;94.30;;;;;;4862358;29;20390;-75
2022/07/07 12:14:09;;;;;;;5.57;2.10;;;30.90;95.50;;;;;;4857384;29;20057;-75
2022/07/07 12:16:47;;;;;;;6.68;2.10;;;31.40;95.00;;;;;;4863370;29;20115;-77
2022/07/07 12:19:14;;;;;;;5.85;2.53;;;31.30;95.30;;;;;;4858117;29;20022;-76
2022/07/07 12:21:52;;;;;;;6.80;2.20;;;31.00;95.30;;;;;;4858289;29;20504;-79
2022/07/07 12:24:23;;;;;;;5.25;2.20;;;31.80;95.30;;;;;;4843515;29;20402;-81
2022/07/07 12:26:51;;;;;;;5.47;2.30;;;31.90;95.00;;;;;;4867569;29;20526;-75
2022/07/07 12:29:22;;;;;;;8.50;2.00;;;31.70;95.30;;;;;;4846246;29;20094;-77
2022/07/07 12:31:49;;;;;;;6.13;2.35;;;30.50;95.40;;;;;;4861737;29;20081;-75
2022/07/07 12:34:18;;;;;;;6.55;2.00;;;30.70;95.60;;;;;;4859572;29;20037;-75
2022/07/07 12:36:48;;;;;;;4.63;1.90;;;30.60;95.70;;;;;;4852473;29;20087;-76
2022/07/07 12:39:14;;;;;;;6.07;2.30;;;30.50;94.70;;;;;;4820533;29;20114;-73
2022/07/07 12:41:42;;;;;;;5.40;2.20;;;30.10;95.30;;;;;;4856614;29;20038;-75
2022/07/07 12:44:26;;;;;;;5.80;2.72;;;30.70;95.30;;;;;;4850025;29;20045;-74
2022/07/07 12:46:56;;;;;;;5.78;2.40;;;30.80;94.90;;;;;;4855776;29;20041;-75
2022/07/07 12:49:22;;;;;;;8.77;2.13;;;31.20;95.20;;;;;;4849442;29;20037;-79
2022/07/07 12:51:51;;;;;;;5.60;2.70;;;31.10;94.40;;;;;;4855450;29;20093;-75